sensor_id;sensor_type;location;lat;lon;timestamp;pressure;altitude;pressure_sealevel;temperature;humidity
21826;BME280;11075;47.944;11.776;2022-07-12T00:01:37;95292.78;;;22.84;23.78
21826;BME280;11075;47.944;11.776;2022-07-12T00:04:04;95293.03;;;23.04;24.06
21826;BME280;11075;47.944;11.776;2022-07-12T00:06:31;95304.66;;;23.64;23.23
21826;BME280;11075;47.944;11.776;2022-07-12T00:08:58;95313.28;;;23.69;23.64
21826;BME280;11075;47.944;11.776;2022-07-12T00:11:25;95303.25;;;23.00;23.54
21826;BME280;11075;47.944;11.776;2022-07-12T00:13:52;95301.84;;;22.74;23.54
21826;BME280;11075;47.944;11.776;2022-07-12T00:16:18;95300.44;;;23.07;23.54
21826;BME280;11075;47.944;11.776;2022-07-12T00:18:45;95278.78;;;21.77;25.53
21826;BME280;11075;47.944;11.776;2022-07-12T00:21:12;95299.97;;;22.61;24.33
21826;BME280;11075;47.944;11.776;2022-07-12T00:23:39;95304.69;;;22.60;23.91
21826;BME280;11075;47.944;11.776;2022-07-12T00:26:06;95311.31;;;23.22;23.62
21826;BME280;11075;47.944;11.776;2022-07-12T00:28:33;95289.63;;;22.16;24.78
21826;BME280;11075;47.944;11.776;2022-07-12T00:31:00;95299.13;;;22.71;24.24
21826;BME280;11075;47.944;11.776;2022-07-12T00:33:27;95304.44;;;22.99;23.86
21826;BME280;11075;47.944;11.776;2022-07-12T00:35:54;95309.91;;;23.03;23.99
21826;BME280;11075;47.944;11.776;2022-07-12T00:38:21;95305.13;;;22.51;24.47
21826;BME280;11075;47.944;11.776;2022-07-12T00:40:48;95305.94;;;22.48;24.41
21826;BME280;11075;47.944;11.776;2022-07-12T00:43:16;95306.56;;;22.74;24.02
21826;BME280;11075;47.944;11.776;2022-07-12T00:45:43;95314.94;;;23.11;23.61
21826;BME280;11075;47.944;11.776;2022-07-12T00:48:10;95312.09;;;23.26;23.25
21826;BME280;11075;47.944;11.776;2022-07-12T00:50:37;95303.78;;;22.81;23.91
21826;BME280;11075;47.944;11.776;2022-07-12T00:53:04;95298.59;;;22.31;24.92
21826;BME280;11075;47.944;11.776;2022-07-12T00:55:31;95297.94;;;22.75;24.31
21826;BME280;11075;47.944;11.776;2022-07-12T00:57:58;95299.97;;;22.61;24.66
21826;BME280;11075;47.944;11.776;2022-07-12T01:00:27;95299.28;;;22.46;24.95
21826;BME280;11075;47.944;11.776;2022-07-12T01:02:57;95316.69;;;23.39;23.85
21826;BME280;11075;47.944;11.776;2022-07-12T01:05:26;95310.44;;;23.35;23.73
21826;BME280;11075;47.944;11.776;2022-07-12T01:07:55;95307.19;;;22.99;23.77
21826;BME280;11075;47.944;11.776;2022-07-12T01:10:22;95328.25;;;24.02;22.93
21826;BME280;11075;47.944;11.776;2022-07-12T01:12:50;95303.19;;;23.07;23.92
21826;BME280;11075;47.944;11.776;2022-07-12T01:15:19;95308.59;;;23.18;23.56
21826;BME280;11075;47.944;11.776;2022-07-12T01:17:47;95310.69;;;23.03;24.11
21826;BME280;11075;47.944;11.776;2022-07-12T01:20:19;95310.91;;;23.71;23.20
21826;BME280;11075;47.944;11.776;2022-07-12T01:22:53;95308.69;;;23.56;23.47
21826;BME280;11075;47.944;11.776;2022-07-12T01:25:21;95305.41;;;23.27;23.78
21826;BME280;11075;47.944;11.776;2022-07-12T01:27:48;95306.94;;;23.31;23.81
21826;BME280;11075;47.944;11.776;2022-07-12T01:30:15;95285.97;;;22.44;24.71
21826;BME280;11075;47.944;11.776;2022-07-12T01:32:42;95307.91;;;23.07;23.76
21826;BME280;11075;47.944;11.776;2022-07-12T01:35:10;95291.16;;;22.21;24.95
21826;BME280;11075;47.944;11.776;2022-07-12T01:37:41;95291.69;;;21.87;25.83
21826;BME280;11075;47.944;11.776;2022-07-12T01:40:10;95280.00;;;21.55;25.69
21826;BME280;11075;47.944;11.776;2022-07-12T01:42:38;95305.00;;;22.76;24.24
21826;BME280;11075;47.944;11.776;2022-07-12T01:45:07;95302.41;;;22.48;24.65
21826;BME280;11075;47.944;11.776;2022-07-12T01:47:34;95299.28;;;22.46;25.00
21826;BME280;11075;47.944;11.776;2022-07-12T01:50:05;95322.63;;;23.34;23.51
21826;BME280;11075;47.944;11.776;2022-07-12T01:52:33;95312.63;;;23.55;23.33
21826;BME280;11075;47.944;11.776;2022-07-12T01:55:00;95294.06;;;22.66;24.59
21826;BME280;11075;47.944;11.776;2022-07-12T01:57:28;95283.06;;;21.78;25.49
21826;BME280;11075;47.944;11.776;2022-07-12T01:59:55;95307.41;;;23.23;23.65
21826;BME280;11075;47.944;11.776;2022-07-12T02:02:25;95304.69;;;23.15;23.44
21826;BME280;11075;47.944;11.776;2022-07-12T02:04:54;95306.41;;;23.47;23.34
21826;BME280;11075;47.944;11.776;2022-07-12T02:07:23;95306.59;;;23.26;23.79
21826;BME280;11075;47.944;11.776;2022-07-12T02:09:50;95296.00;;;22.69;24.31
21826;BME280;11075;47.944;11.776;2022-07-12T02:12:17;95295.59;;;21.93;25.49
21826;BME280;11075;47.944;11.776;2022-07-12T02:14:44;95300.09;;;22.43;25.00
21826;BME280;11075;47.944;11.776;2022-07-12T02:17:11;95308.16;;;23.27;23.76
21826;BME280;11075;47.944;11.776;2022-07-12T02:19:38;95288.44;;;22.14;25.16
21826;BME280;11075;47.944;11.776;2022-07-12T02:22:05;95300.75;;;22.61;24.67
21826;BME280;11075;47.944;11.776;2022-07-12T02:24:32;95291.47;;;22.41;24.54
21826;BME280;11075;47.944;11.776;2022-07-12T02:26:59;95288.50;;;22.03;24.91
21826;BME280;11075;47.944;11.776;2022-07-12T02:29:26;95301.09;;;22.70;23.97
21826;BME280;11075;47.944;11.776;2022-07-12T02:31:53;95293.66;;;22.67;24.31
21826;BME280;11075;47.944;11.776;2022-07-12T02:34:20;95284.66;;;21.79;25.44
21826;BME280;11075;47.944;11.776;2022-07-12T02:36:47;95298.81;;;22.62;23.72
21826;BME280;11075;47.944;11.776;2022-07-12T02:39:14;95292.19;;;22.52;24.14
21826;BME280;11075;47.944;11.776;2022-07-12T02:41:41;95297.63;;;22.59;23.74
21826;BME280;11075;47.944;11.776;2022-07-12T02:44:08;95288.09;;;22.05;24.46
21826;BME280;11075;47.944;11.776;2022-07-12T02:46:34;95301.97;;;22.56;23.66
21826;BME280;11075;47.944;11.776;2022-07-12T02:49:02;95292.03;;;22.04;24.22
21826;BME280;11075;47.944;11.776;2022-07-12T02:51:29;95283.19;;;21.14;25.10
21826;BME280;11075;47.944;11.776;2022-07-12T02:53:56;95274.97;;;21.07;25.84
21826;BME280;11075;47.944;11.776;2022-07-12T02:56:23;95297.63;;;21.65;24.93
21826;BME280;11075;47.944;11.776;2022-07-12T02:58:50;95296.44;;;21.80;24.37
21826;BME280;11075;47.944;11.776;2022-07-12T03:01:17;95306.41;;;22.36;24.25
21826;BME280;11075;47.944;11.776;2022-07-12T03:03:44;95280.03;;;20.77;25.56
21826;BME280;11075;47.944;11.776;2022-07-12T03:06:11;95251.31;;;18.75;28.32
21826;BME280;11075;47.944;11.776;2022-07-12T03:08:39;95292.53;;;20.56;26.00
21826;BME280;11075;47.944;11.776;2022-07-12T03:11:06;95317.19;;;21.63;24.56
21826;BME280;11075;47.944;11.776;2022-07-12T03:13:32;95300.78;;;21.27;25.01
21826;BME280;11075;47.944;11.776;2022-07-12T03:15:59;95294.31;;;20.06;26.41
21826;BME280;11075;47.944;11.776;2022-07-12T03:18:27;95318.75;;;21.68;24.64
21826;BME280;11075;47.944;11.776;2022-07-12T03:20:54;95327.72;;;21.93;24.02
21826;BME280;11075;47.944;11.776;2022-07-12T03:23:21;95316.84;;;21.18;25.05
21826;BME280;11075;47.944;11.776;2022-07-12T03:25:48;95317.19;;;21.81;24.11
21826;BME280;11075;47.944;11.776;2022-07-12T03:28:14;95324.56;;;22.02;23.62
21826;BME280;11075;47.944;11.776;2022-07-12T03:30:41;95318.34;;;21.80;23.92
21826;BME280;11075;47.944;11.776;2022-07-12T03:33:08;95305.50;;;21.16;24.40
21826;BME280;11075;47.944;11.776;2022-07-12T03:35:35;95271.66;;;18.82;27.65
21826;BME280;11075;47.944;11.776;2022-07-12T03:38:03;95315.63;;;20.77;24.91
21826;BME280;11075;47.944;11.776;2022-07-12T03:40:31;95329.34;;;21.55;24.17
21826;BME280;11075;47.944;11.776;2022-07-12T03:42:59;95331.56;;;22.13;23.63
21826;BME280;11075;47.944;11.776;2022-07-12T03:45:25;95338.72;;;21.68;24.18
21826;BME280;11075;47.944;11.776;2022-07-12T03:47:52;95316.25;;;20.20;25.35
21826;BME280;11075;47.944;11.776;2022-07-12T03:50:19;95330.53;;;21.11;24.63
21826;BME280;11075;47.944;11.776;2022-07-12T03:52:47;95339.53;;;21.65;23.98
21826;BME280;11075;47.944;11.776;2022-07-12T03:55:15;95330.53;;;21.61;24.28
21826;BME280;11075;47.944;11.776;2022-07-12T03:57:42;95329.38;;;21.44;23.97
21826;BME280;11075;47.944;11.776;2022-07-12T04:00:10;95298.84;;;19.77;26.31
21826;BME280;11075;47.944;11.776;2022-07-12T04:02:41;95321.88;;;20.81;24.65
21826;BME280;11075;47.944;11.776;2022-07-12T04:05:09;95348.91;;;21.71;23.84
21826;BME280;11075;47.944;11.776;2022-07-12T04:07:37;95354.13;;;22.60;22.79
21826;BME280;11075;47.944;11.776;2022-07-12T04:10:04;95335.63;;;21.23;24.28
21826;BME280;11075;47.944;11.776;2022-07-12T04:12:32;95319.13;;;20.59;25.19
21826;BME280;11075;47.944;11.776;2022-07-12T04:14:58;95341.13;;;21.45;23.69
21826;BME280;11075;47.944;11.776;2022-07-12T04:17:26;95318.72;;;20.57;25.42
21826;BME280;11075;47.944;11.776;2022-07-12T04:19:52;95349.16;;;22.27;23.59
21826;BME280;11075;47.944;11.776;2022-07-12T04:22:20;95344.94;;;22.01;23.56
21826;BME280;11075;47.944;11.776;2022-07-12T04:24:46;95358.56;;;22.29;23.00
21826;BME280;11075;47.944;11.776;2022-07-12T04:27:13;95297.34;;;19.25;27.26
21826;BME280;11075;47.944;11.776;2022-07-12T04:29:40;95326.22;;;20.92;25.34
21826;BME280;11075;47.944;11.776;2022-07-12T04:32:07;95324.16;;;20.47;25.59
21826;BME280;11075;47.944;11.776;2022-07-12T04:34:35;95319.28;;;19.35;26.83
21826;BME280;11075;47.944;11.776;2022-07-12T04:37:01;95363.03;;;21.80;23.89
21826;BME280;11075;47.944;11.776;2022-07-12T04:39:28;95357.53;;;21.66;24.08
21826;BME280;11075;47.944;11.776;2022-07-12T04:41:55;95337.88;;;20.57;25.40
21826;BME280;11075;47.944;11.776;2022-07-12T04:44:22;95355.19;;;21.11;25.00
21826;BME280;11075;47.944;11.776;2022-07-12T04:46:49;95368.41;;;22.16;23.76
21826;BME280;11075;47.944;11.776;2022-07-12T04:49:17;95342.28;;;21.22;24.76
21826;BME280;11075;47.944;11.776;2022-07-12T04:51:43;95333.91;;;20.33;25.57
21826;BME280;11075;47.944;11.776;2022-07-12T04:54:11;95341.81;;;20.63;25.75
21826;BME280;11075;47.944;11.776;2022-07-12T04:56:38;95344.56;;;20.71;25.07
21826;BME280;11075;47.944;11.776;2022-07-12T04:59:05;95372.38;;;22.01;23.80
21826;BME280;11075;47.944;11.776;2022-07-12T05:01:32;95363.78;;;21.84;24.47
21826;BME280;11075;47.944;11.776;2022-07-12T05:04:00;95365.91;;;22.53;23.67
21826;BME280;11075;47.944;11.776;2022-07-12T05:06:26;95360.59;;;22.07;24.16
21826;BME280;11075;47.944;11.776;2022-07-12T05:08:53;95341.13;;;21.38;25.15
21826;BME280;11075;47.944;11.776;2022-07-12T05:11:20;95366.38;;;23.11;23.29
21826;BME280;11075;47.944;11.776;2022-07-12T05:13:47;95370.75;;;23.01;23.56
21826;BME280;11075;47.944;11.776;2022-07-12T05:16:14;95363.41;;;22.84;23.81
21826;BME280;11075;47.944;11.776;2022-07-12T05:18:41;95355.50;;;22.09;24.32
21826;BME280;11075;47.944;11.776;2022-07-12T05:21:08;95344.94;;;21.97;25.10
21826;BME280;11075;47.944;11.776;2022-07-12T05:23:35;95317.13;;;20.49;26.59
21826;BME280;11075;47.944;11.776;2022-07-12T05:26:02;95346.19;;;21.21;25.62
21826;BME280;11075;47.944;11.776;2022-07-12T05:28:29;95318.16;;;20.09;26.85
21826;BME280;11075;47.944;11.776;2022-07-12T05:30:55;95359.91;;;21.46;24.79
21826;BME280;11075;47.944;11.776;2022-07-12T05:33:22;95339.16;;;20.99;26.02
21826;BME280;11075;47.944;11.776;2022-07-12T05:35:49;95351.47;;;22.39;25.11
21826;BME280;11075;47.944;11.776;2022-07-12T05:38:18;95360.59;;;22.07;25.12
21826;BME280;11075;47.944;11.776;2022-07-12T05:40:45;95352.88;;;21.35;25.21
21826;BME280;11075;47.944;11.776;2022-07-12T05:43:12;95364.78;;;22.44;24.67
21826;BME280;11075;47.944;11.776;2022-07-12T05:45:40;95368.56;;;23.34;23.65
21826;BME280;11075;47.944;11.776;2022-07-12T05:48:07;95368.38;;;22.23;24.87
21826;BME280;11075;47.944;11.776;2022-07-12T05:50:34;95356.22;;;22.35;25.03
21826;BME280;11075;47.944;11.776;2022-07-12T05:53:02;95392.47;;;24.26;22.63
21826;BME280;11075;47.944;11.776;2022-07-12T05:55:51;95361.84;;;21.85;24.76
21826;BME280;11075;47.944;11.776;2022-07-12T05:58:19;95353.63;;;21.53;25.84
21826;BME280;11075;47.944;11.776;2022-07-12T06:00:47;95345.78;;;20.91;26.22
21826;BME280;11075;47.944;11.776;2022-07-12T06:03:14;95376.66;;;22.09;24.53
21826;BME280;11075;47.944;11.776;2022-07-12T06:05:41;95401.44;;;24.34;22.87
21826;BME280;11075;47.944;11.776;2022-07-12T06:08:08;95382.31;;;22.68;23.89
21826;BME280;11075;47.944;11.776;2022-07-12T06:10:35;95387.63;;;23.03;23.65
21826;BME280;11075;47.944;11.776;2022-07-12T06:13:02;95377.22;;;23.80;24.05
21826;BME280;11075;47.944;11.776;2022-07-12T06:15:29;95376.47;;;24.48;23.37
21826;BME280;11075;47.944;11.776;2022-07-12T06:18:01;95363.66;;;22.23;24.77
21826;BME280;11075;47.944;11.776;2022-07-12T06:20:29;95390.66;;;23.68;23.44
21826;BME280;11075;47.944;11.776;2022-07-12T06:22:56;95369.09;;;23.14;24.35
21826;BME280;11075;47.944;11.776;2022-07-12T06:25:23;95380.00;;;23.29;24.29
21826;BME280;11075;47.944;11.776;2022-07-12T06:28:10;95404.94;;;23.97;22.80
21826;BME280;11075;47.944;11.776;2022-07-12T06:30:38;95394.34;;;21.90;23.95
21826;BME280;11075;47.944;11.776;2022-07-12T06:33:05;95368.97;;;22.66;24.64
21826;BME280;11075;47.944;11.776;2022-07-12T06:35:31;95396.16;;;23.68;23.31
21826;BME280;11075;47.944;11.776;2022-07-12T06:38:01;95429.91;;;25.42;21.61
21826;BME280;11075;47.944;11.776;2022-07-12T06:40:28;95403.31;;;24.03;22.98
21826;BME280;11075;47.944;11.776;2022-07-12T06:42:55;95392.25;;;23.13;23.48
21826;BME280;11075;47.944;11.776;2022-07-12T06:45:22;95419.75;;;26.09;21.29
21826;BME280;11075;47.944;11.776;2022-07-12T06:47:50;95420.91;;;25.38;21.27
21826;BME280;11075;47.944;11.776;2022-07-12T06:50:17;95388.97;;;24.22;22.77
21826;BME280;11075;47.944;11.776;2022-07-12T06:52:44;95395.69;;;27.41;21.73
21826;BME280;11075;47.944;11.776;2022-07-12T06:55:11;95413.22;;;25.99;20.86
21826;BME280;11075;47.944;11.776;2022-07-12T06:57:38;95415.47;;;26.67;21.11
21826;BME280;11075;47.944;11.776;2022-07-12T07:00:05;95415.88;;;26.86;20.50
21826;BME280;11075;47.944;11.776;2022-07-12T07:02:33;95428.22;;;27.17;19.55
21826;BME280;11075;47.944;11.776;2022-07-12T07:04:59;95361.81;;;24.24;22.99
21826;BME280;11075;47.944;11.776;2022-07-12T07:07:26;95375.59;;;25.39;22.14
21826;BME280;11075;47.944;11.776;2022-07-12T07:09:54;95330.19;;;23.64;24.62
21826;BME280;11075;47.944;11.776;2022-07-12T07:12:20;95368.88;;;24.25;23.28
21826;BME280;11075;47.944;11.776;2022-07-12T07:14:48;95362.06;;;23.58;23.16
21826;BME280;11075;47.944;11.776;2022-07-12T07:17:16;95388.41;;;24.00;22.60
21826;BME280;11075;47.944;11.776;2022-07-12T07:19:44;95385.38;;;25.90;22.45
21826;BME280;11075;47.944;11.776;2022-07-12T07:22:11;95388.94;;;23.40;23.19
21826;BME280;11075;47.944;11.776;2022-07-12T07:24:40;95347.22;;;22.20;26.03
21826;BME280;11075;47.944;11.776;2022-07-12T07:27:07;95352.06;;;21.23;26.49
21826;BME280;11075;47.944;11.776;2022-07-12T07:29:35;95396.81;;;23.38;23.39
21826;BME280;11075;47.944;11.776;2022-07-12T07:32:20;95401.28;;;25.09;22.85
21826;BME280;11075;47.944;11.776;2022-07-12T07:34:47;95417.13;;;25.79;21.15
21826;BME280;11075;47.944;11.776;2022-07-12T07:37:14;95401.66;;;26.67;21.47
21826;BME280;11075;47.944;11.776;2022-07-12T07:39:41;95418.22;;;28.05;20.56
21826;BME280;11075;47.944;11.776;2022-07-12T07:42:08;95411.94;;;26.47;20.42
21826;BME280;11075;47.944;11.776;2022-07-12T07:44:35;95401.94;;;23.36;21.76
21826;BME280;11075;47.944;11.776;2022-07-12T07:47:22;95401.81;;;23.95;21.84
21826;BME280;11075;47.944;11.776;2022-07-12T07:49:49;95391.75;;;22.63;22.72
21826;BME280;11075;47.944;11.776;2022-07-12T07:52:16;95389.25;;;25.46;22.17
21826;BME280;11075;47.944;11.776;2022-07-12T07:54:43;95430.94;;;27.37;19.86
21826;BME280;11075;47.944;11.776;2022-07-12T07:57:10;95427.81;;;26.43;20.30
21826;BME280;11075;47.944;11.776;2022-07-12T07:59:36;95439.16;;;27.57;19.04
21826;BME280;11075;47.944;11.776;2022-07-12T08:02:03;95431.94;;;28.24;19.48
21826;BME280;11075;47.944;11.776;2022-07-12T08:04:31;95404.69;;;26.73;20.76
21826;BME280;11075;47.944;11.776;2022-07-12T08:06:58;95433.53;;;27.60;19.40
21826;BME280;11075;47.944;11.776;2022-07-12T08:09:25;95440.41;;;26.64;19.02
21826;BME280;11075;47.944;11.776;2022-07-12T08:11:52;95440.81;;;27.87;18.80
21826;BME280;11075;47.944;11.776;2022-07-12T08:14:19;95383.66;;;24.04;22.47
21826;BME280;11075;47.944;11.776;2022-07-12T08:16:45;95424.44;;;25.89;19.58
21826;BME280;11075;47.944;11.776;2022-07-12T08:19:12;95425.03;;;26.83;19.62
21826;BME280;11075;47.944;11.776;2022-07-12T08:21:39;95414.50;;;27.95;19.61
21826;BME280;11075;47.944;11.776;2022-07-12T08:24:06;95412.91;;;28.55;19.39
21826;BME280;11075;47.944;11.776;2022-07-12T08:26:33;95424.44;;;25.89;19.96
21826;BME280;11075;47.944;11.776;2022-07-12T08:29:00;95407.72;;;26.19;20.56
21826;BME280;11075;47.944;11.776;2022-07-12T08:31:27;95407.94;;;27.89;19.78
21826;BME280;11075;47.944;11.776;2022-07-12T08:33:54;95398.16;;;25.57;21.06
21826;BME280;11075;47.944;11.776;2022-07-12T08:36:21;95442.56;;;27.12;18.78
21826;BME280;11075;47.944;11.776;2022-07-12T08:38:48;95432.34;;;25.87;19.91
21826;BME280;11075;47.944;11.776;2022-07-12T08:41:15;95434.00;;;28.37;18.76
21826;BME280;11075;47.944;11.776;2022-07-12T08:43:42;95422.69;;;27.17;19.93
21826;BME280;11075;47.944;11.776;2022-07-12T08:46:11;95409.06;;;25.14;20.97
21826;BME280;11075;47.944;11.776;2022-07-12T08:48:40;95455.94;;;27.50;18.62
21826;BME280;11075;47.944;11.776;2022-07-12T08:51:12;95427.22;;;28.38;19.32
21826;BME280;11075;47.944;11.776;2022-07-12T08:53:40;95456.22;;;27.88;18.52
21826;BME280;11075;47.944;11.776;2022-07-12T08:56:31;95460.22;;;28.03;18.02
21826;BME280;11075;47.944;11.776;2022-07-12T08:59:15;95433.94;;;28.24;19.52
21826;BME280;11075;47.944;11.776;2022-07-12T09:01:50;95431.97;;;26.51;19.67
21826;BME280;11075;47.944;11.776;2022-07-12T09:04:23;95422.50;;;24.10;21.09
21826;BME280;11075;47.944;11.776;2022-07-12T09:06:50;95444.22;;;26.70;19.25
21826;BME280;11075;47.944;11.776;2022-07-12T09:09:34;95457.13;;;27.33;18.64
21826;BME280;11075;47.944;11.776;2022-07-12T09:12:04;95468.81;;;29.08;17.22
21826;BME280;11075;47.944;11.776;2022-07-12T09:14:31;95459.75;;;28.79;18.04
21826;BME280;11075;47.944;11.776;2022-07-12T09:19:26;95446.34;;;27.02;19.13
21826;BME280;11075;47.944;11.776;2022-07-12T09:21:54;95433.16;;;26.70;19.74
21826;BME280;11075;47.944;11.776;2022-07-12T09:24:25;95442.56;;;27.12;19.50
21826;BME280;11075;47.944;11.776;2022-07-12T09:27:00;95430.50;;;25.80;19.38
21826;BME280;11075;47.944;11.776;2022-07-12T09:29:28;95453.63;;;28.42;18.30
21826;BME280;11075;47.944;11.776;2022-07-12T09:31:55;95475.59;;;30.65;16.99
21826;BME280;11075;47.944;11.776;2022-07-12T09:34:40;95440.31;;;29.33;18.82
21826;BME280;11075;47.944;11.776;2022-07-12T09:37:26;95468.69;;;29.12;17.26
21826;BME280;11075;47.944;11.776;2022-07-12T09:39:54;95449.50;;;28.34;17.88
21826;BME280;11075;47.944;11.776;2022-07-12T09:42:21;95463.16;;;28.70;17.50
21826;BME280;11075;47.944;11.776;2022-07-12T09:44:55;95437.16;;;28.22;18.20
21826;BME280;11075;47.944;11.776;2022-07-12T09:47:23;95445.69;;;27.67;18.41
21826;BME280;11075;47.944;11.776;2022-07-12T09:49:52;95456.63;;;29.82;17.78
21826;BME280;11075;47.944;11.776;2022-07-12T09:52:21;95465.50;;;32.23;16.98
21826;BME280;11075;47.944;11.776;2022-07-12T09:54:53;95468.31;;;29.64;16.68
21826;BME280;11075;47.944;11.776;2022-07-12T09:57:31;95447.75;;;29.62;17.44
21826;BME280;11075;47.944;11.776;2022-07-12T10:00:01;95452.06;;;29.12;17.48
21826;BME280;11075;47.944;11.776;2022-07-12T10:02:37;95464.41;;;28.82;17.45
21826;BME280;11075;47.944;11.776;2022-07-12T10:05:07;95437.34;;;26.98;19.73
21826;BME280;11075;47.944;11.776;2022-07-12T10:07:36;95446.50;;;28.99;17.65
21826;BME280;11075;47.944;11.776;2022-07-12T10:10:04;95442.19;;;29.62;17.96
21826;BME280;11075;47.944;11.776;2022-07-12T10:12:32;95475.28;;;31.69;15.73
21826;BME280;11075;47.944;11.776;2022-07-12T10:15:02;95457.59;;;27.80;17.80
21826;BME280;11075;47.944;11.776;2022-07-12T10:17:32;95443.06;;;27.76;18.80
21826;BME280;11075;47.944;11.776;2022-07-12T10:20:16;95475.84;;;29.51;16.32
21826;BME280;11075;47.944;11.776;2022-07-12T10:22:44;95465.72;;;30.30;16.94
21826;BME280;11075;47.944;11.776;2022-07-12T10:27:57;95483.84;;;31.93;15.83
21826;BME280;11075;47.944;11.776;2022-07-12T10:30:25;95472.91;;;30.05;16.24
21826;BME280;11075;47.944;11.776;2022-07-12T10:32:54;95472.16;;;29.79;16.92
21826;BME280;11075;47.944;11.776;2022-07-12T10:35:30;95473.13;;;30.11;16.86
21826;BME280;11075;47.944;11.776;2022-07-12T10:38:17;95470.03;;;29.20;16.89
21826;BME280;11075;47.944;11.776;2022-07-12T10:40:46;95472.44;;;30.20;16.41
21826;BME280;11075;47.944;11.776;2022-07-12T10:43:15;95463.63;;;29.36;17.01
21826;BME280;11075;47.944;11.776;2022-07-12T10:45:44;95452.81;;;29.89;17.56
21826;BME280;11075;47.944;11.776;2022-07-12T10:58:32;95456.00;;;34.11;16.35
21826;BME280;11075;47.944;11.776;2022-07-12T11:01:02;95461.81;;;28.62;17.08
21826;BME280;11075;47.944;11.776;2022-07-12T11:03:40;95477.22;;;28.92;16.28
21826;BME280;11075;47.944;11.776;2022-07-12T11:06:15;95444.78;;;28.18;17.58
21826;BME280;11075;47.944;11.776;2022-07-12T11:09:09;95435.88;;;28.40;18.30
21826;BME280;11075;47.944;11.776;2022-07-12T11:11:47;95464.25;;;32.88;15.61
21826;BME280;11075;47.944;11.776;2022-07-12T11:14:35;95465.44;;;31.95;16.64
21826;BME280;11075;47.944;11.776;2022-07-12T11:17:02;95471.66;;;33.09;15.01
21826;BME280;11075;47.944;11.776;2022-07-12T11:19:31;95459.72;;;31.50;15.96
21826;BME280;11075;47.944;11.776;2022-07-12T11:21:58;95441.38;;;31.21;16.31
21826;BME280;11075;47.944;11.776;2022-07-12T11:24:31;95441.94;;;30.85;16.98
21826;BME280;11075;47.944;11.776;2022-07-12T11:26:58;95455.63;;;31.01;16.12
21826;BME280;11075;47.944;11.776;2022-07-12T11:29:27;95438.47;;;28.47;17.68
21826;BME280;11075;47.944;11.776;2022-07-12T11:32:02;95428.66;;;29.51;17.74
21826;BME280;11075;47.944;11.776;2022-07-12T11:34:36;95451.19;;;29.40;16.40
21826;BME280;11075;47.944;11.776;2022-07-12T11:37:03;95451.63;;;30.59;16.40
21826;BME280;11075;47.944;11.776;2022-07-12T11:39:38;95458.69;;;32.70;15.45
21826;BME280;11075;47.944;11.776;2022-07-12T11:42:07;95464.94;;;33.67;14.58
21826;BME280;11075;47.944;11.776;2022-07-12T11:47:10;95416.94;;;28.09;18.11
21826;BME280;11075;47.944;11.776;2022-07-12T11:49:45;95429.97;;;29.21;16.86
21826;BME280;11075;47.944;11.776;2022-07-12T11:52:14;95413.41;;;26.72;19.11
21826;BME280;11075;47.944;11.776;2022-07-12T11:54:48;95454.34;;;32.69;15.44
21826;BME280;11075;47.944;11.776;2022-07-12T11:57:19;95439.88;;;31.38;16.38
21826;BME280;11075;47.944;11.776;2022-07-12T11:59:46;95460.22;;;32.71;15.22
21826;BME280;11075;47.944;11.776;2022-07-12T12:02:14;95451.81;;;33.16;15.04
21826;BME280;11075;47.944;11.776;2022-07-12T12:05:03;95459.03;;;34.22;14.53
21826;BME280;11075;47.944;11.776;2022-07-12T12:07:31;95423.28;;;33.78;16.17
21826;BME280;11075;47.944;11.776;2022-07-12T12:10:13;95450.50;;;33.69;14.43
21826;BME280;11075;47.944;11.776;2022-07-12T12:15:18;95426.53;;;29.80;16.70
21826;BME280;11075;47.944;11.776;2022-07-12T12:18:05;95452.13;;;31.50;15.50
21826;BME280;11075;47.944;11.776;2022-07-12T12:20:38;95396.09;;;29.77;17.19
21826;BME280;11075;47.944;11.776;2022-07-12T12:23:17;95398.50;;;29.88;17.40
21826;BME280;11075;47.944;11.776;2022-07-12T12:25:45;95416.78;;;29.00;17.17
21826;BME280;11075;47.944;11.776;2022-07-12T12:28:20;95412.91;;;29.35;17.56
21826;BME280;11075;47.944;11.776;2022-07-12T12:30:55;95441.78;;;31.51;15.99
21826;BME280;11075;47.944;11.776;2022-07-12T12:36:22;95441.50;;;32.53;15.15
21826;BME280;11075;47.944;11.776;2022-07-12T12:38:51;95432.91;;;31.34;17.06
21826;BME280;11075;47.944;11.776;2022-07-12T12:41:20;95422.47;;;28.38;17.59
21826;BME280;11075;47.944;11.776;2022-07-12T12:44:03;95416.69;;;30.36;17.38
21826;BME280;11075;47.944;11.776;2022-07-12T12:49:16;95434.91;;;30.02;16.69
21826;BME280;11075;47.944;11.776;2022-07-12T12:51:54;95438.69;;;30.43;15.95
21826;BME280;11075;47.944;11.776;2022-07-12T12:54:35;95464.09;;;32.09;15.59
21826;BME280;11075;47.944;11.776;2022-07-12T12:57:06;95449.06;;;29.57;16.00
21826;BME280;11075;47.944;11.776;2022-07-12T12:59:34;95445.38;;;30.33;15.88
21826;BME280;11075;47.944;11.776;2022-07-12T13:02:02;95445.66;;;30.69;15.48
21826;BME280;11075;47.944;11.776;2022-07-12T13:04:31;95437.28;;;29.91;15.82
21826;BME280;11075;47.944;11.776;2022-07-12T13:06:58;95445.50;;;32.24;14.91
21826;BME280;11075;47.944;11.776;2022-07-12T13:09:27;95442.84;;;30.82;15.76
21826;BME280;11075;47.944;11.776;2022-07-12T13:11:54;95422.31;;;28.87;16.93
21826;BME280;11075;47.944;11.776;2022-07-12T13:14:21;95417.56;;;28.59;17.34
21826;BME280;11075;47.944;11.776;2022-07-12T13:16:48;95419.19;;;30.21;16.32
21826;BME280;11075;47.944;11.776;2022-07-12T13:19:15;95423.22;;;29.73;16.71
21826;BME280;11075;47.944;11.776;2022-07-12T13:21:42;95435.44;;;32.63;15.42
21826;BME280;11075;47.944;11.776;2022-07-12T13:24:09;95431.97;;;29.84;15.77
21826;BME280;11075;47.944;11.776;2022-07-12T13:26:36;95415.81;;;28.36;17.15